createdAt,value
2018-05-04T00:00:22.664Z,58.02
2018-05-04T00:01:29.545Z,58.12
2018-05-04T00:02:36.475Z,58.13
2018-05-04T00:03:43.376Z,58.14
2018-05-04T00:04:50.256Z,58.20
2018-05-04T00:05:56.949Z,58.28
2018-05-04T00:07:03.928Z,58.35
2018-05-04T00:08:10.791Z,58.41
2018-05-04T00:09:17.536Z,58.50
2018-05-04T00:10:24.274Z,58.48
2018-05-04T00:11:31.022Z,58.56
2018-05-04T00:12:37.935Z,58.54
2018-05-04T00:13:44.743Z,58.53
2018-05-04T00:14:51.595Z,58.44
2018-05-04T00:15:58.427Z,58.38
2018-05-04T00:17:05.239Z,58.49
2018-05-04T00:18:12.034Z,58.54
2018-05-04T00:19:18.859Z,58.61
2018-05-04T00:20:25.622Z,58.70
2018-05-04T00:21:32.365Z,58.76
2018-05-04T00:22:39.077Z,58.81
2018-05-04T00:23:46.023Z,58.80
2018-05-04T00:24:53.274Z,58.89
2018-05-04T00:25:59.582Z,58.98
2018-05-04T00:27:06.399Z,58.90
2018-05-04T00:28:13.344Z,58.89
2018-05-04T00:29:20.355Z,58.97
2018-05-04T00:30:26.557Z,58.99
2018-05-04T00:31:33.531Z,59.03
2018-05-04T00:32:40.034Z,59.03
2018-05-04T00:33:46.775Z,59.03
2018-05-04T00:34:53.539Z,59.00
2018-05-04T00:36:00.556Z,58.99
2018-05-04T00:37:07.458Z,59.09
2018-05-04T00:38:14.222Z,59.12
2018-05-04T00:39:21.024Z,59.17
2018-05-04T00:40:27.932Z,59.20
2018-05-04T00:41:34.700Z,59.28
2018-05-04T00:42:41.487Z,59.32
2018-05-04T00:43:48.229Z,59.33
2018-05-04T00:44:54.994Z,59.32
2018-05-04T00:46:01.795Z,59.37
2018-05-04T00:47:08.781Z,59.47
2018-05-04T00:48:15.387Z,59.54
2018-05-04T00:49:22.451Z,59.65
2018-05-04T00:50:29.116Z,59.72
2018-05-04T00:51:36.116Z,59.73
2018-05-04T00:52:42.974Z,59.72
2018-05-04T00:53:49.785Z,59.78
2018-05-04T00:54:56.614Z,59.83
2018-05-04T00:56:03.359Z,59.92
2018-05-04T00:57:10.096Z,59.96
2018-05-04T00:58:16.970Z,59.97
2018-05-04T00:59:23.553Z,59.97
2018-05-04T01:00:30.398Z,59.96
2018-05-04T01:01:37.283Z,59.98
2018-05-04T01:02:44.171Z,60.05
2018-05-04T01:03:51.022Z,60.06
2018-05-04T01:04:57.904Z,60.09
2018-05-04T01:06:04.731Z,60.11
2018-05-04T01:07:11.485Z,60.20
2018-05-04T01:08:18.238Z,60.35
2018-05-04T01:09:24.986Z,60.35
2018-05-04T01:10:31.710Z,60.31
2018-05-04T01:11:38.447Z,60.40
2018-05-04T01:12:45.209Z,60.41
2018-05-04T01:13:51.935Z,60.41
2018-05-04T01:14:58.988Z,60.49
2018-05-04T01:16:05.479Z,60.60
2018-05-04T01:17:12.206Z,60.62
2018-05-04T01:18:18.978Z,60.62
2018-05-04T01:19:25.734Z,60.61
2018-05-04T01:20:32.719Z,60.62
2018-05-04T01:21:39.477Z,60.66
2018-05-04T01:22:46.219Z,60.70
2018-05-04T01:23:53.070Z,60.80
2018-05-04T01:24:59.902Z,60.75
2018-05-04T01:26:06.627Z,60.80
2018-05-04T01:27:13.370Z,60.84
2018-05-04T01:28:20.132Z,60.88
2018-05-04T01:29:26.923Z,60.84
2018-05-04T01:30:33.794Z,60.84
2018-05-04T01:31:40.758Z,60.87
2018-05-04T01:32:47.666Z,60.96
2018-05-04T01:33:54.648Z,60.96
2018-05-04T01:35:01.388Z,61.04
2018-05-04T01:36:08.099Z,61.03
2018-05-04T01:37:15.197Z,61.08
2018-05-04T01:38:22.067Z,61.17
2018-05-04T01:39:28.929Z,61.21
2018-05-04T01:40:35.666Z,61.22
2018-05-04T01:41:42.616Z,61.25
2018-05-04T01:42:49.519Z,61.24
2018-05-04T01:43:56.281Z,61.30
2018-05-04T01:45:03.044Z,61.20
2018-05-04T01:46:10.257Z,61.18
2018-05-04T01:47:17.243Z,61.29
2018-05-04T01:48:24.003Z,61.04
2018-05-04T01:49:30.712Z,61.34
2018-05-04T01:50:37.599Z,61.28
2018-05-04T01:51:44.651Z,61.28
2018-05-04T01:52:51.511Z,61.40
2018-05-04T01:53:58.214Z,61.35
2018-05-04T01:55:04.947Z,61.34
2018-05-04T01:56:11.881Z,61.38
2018-05-04T01:57:18.790Z,61.45
2018-05-04T01:58:25.507Z,61.49
2018-05-04T01:59:32.249Z,61.56
2018-05-04T02:00:39.054Z,61.62
2018-05-04T02:01:45.854Z,61.63
2018-05-04T02:02:52.614Z,61.66
2018-05-04T02:03:59.386Z,61.69
2018-05-04T02:05:06.262Z,61.75
2018-05-04T02:06:13.031Z,61.77
2018-05-04T02:07:19.715Z,61.68
2018-05-04T02:08:26.991Z,61.77
2018-05-04T02:09:33.198Z,61.74
2018-05-04T02:10:40.193Z,61.76
2018-05-04T02:11:46.928Z,61.75
2018-05-04T02:12:53.692Z,61.86
2018-05-04T02:14:00.671Z,61.77
2018-05-04T02:15:07.386Z,61.74
2018-05-04T02:16:14.170Z,61.77
2018-05-04T02:17:20.882Z,61.77
2018-05-04T02:18:27.806Z,61.83
2018-05-04T02:19:34.807Z,61.87
2018-05-04T02:20:41.493Z,61.83
2018-05-04T02:21:48.421Z,61.86
2018-05-04T02:22:55.263Z,61.89
2018-05-04T02:24:02.327Z,61.98
2018-05-04T02:25:09.144Z,61.98
2018-05-04T02:26:15.885Z,61.88
2018-05-04T02:27:22.634Z,62.00
2018-05-04T02:28:29.663Z,61.99
2018-05-04T02:29:36.566Z,61.98
2018-05-04T02:30:43.337Z,61.98
2018-05-04T02:31:50.150Z,62.04
2018-05-04T02:32:57.527Z,62.05
2018-05-04T02:34:03.787Z,62.02
2018-05-04T02:35:10.542Z,62.05
2018-05-04T02:36:17.266Z,62.18
2018-05-04T02:37:24.134Z,62.19
2018-05-04T02:38:30.960Z,62.22
2018-05-04T02:39:37.675Z,62.27
2018-05-04T02:40:44.392Z,62.31
2018-05-04T02:41:51.116Z,62.30
2018-05-04T02:42:57.843Z,62.40
2018-05-04T02:44:04.562Z,62.37
2018-05-04T02:45:11.277Z,62.32
2018-05-04T02:46:18.071Z,62.36
2018-05-04T02:47:24.810Z,62.46
2018-05-04T02:48:31.526Z,62.43
2018-05-04T02:49:38.269Z,62.39
2018-05-04T02:50:45.150Z,62.40
2018-05-04T02:51:52.043Z,62.41
2018-05-04T02:52:58.918Z,61.89
2018-05-04T02:54:05.636Z,62.43
2018-05-04T02:55:12.382Z,62.45
2018-05-04T02:56:19.321Z,62.51
2018-05-04T02:57:26.133Z,62.58
2018-05-04T02:58:33.216Z,62.59
2018-05-04T02:59:39.995Z,62.58
2018-05-04T03:00:47.000Z,62.70
2018-05-04T03:01:53.915Z,62.77
2018-05-04T03:03:00.687Z,62.70
2018-05-04T03:04:07.695Z,62.69
2018-05-04T03:05:14.429Z,62.74
2018-05-04T03:06:21.188Z,62.72
2018-05-04T03:07:28.467Z,62.78
2018-05-04T03:08:34.717Z,62.76
2018-05-04T03:09:41.428Z,62.80
2018-05-04T03:10:48.138Z,62.89
2018-05-04T03:11:54.839Z,62.88
2018-05-04T03:13:01.615Z,62.81
2018-05-04T03:14:08.595Z,62.81
2018-05-04T03:15:15.795Z,62.77
2018-05-04T03:16:22.124Z,62.78
2018-05-04T03:17:28.851Z,62.81
2018-05-04T03:18:35.593Z,62.78
2018-05-04T03:19:42.326Z,62.73
2018-05-04T03:20:49.105Z,62.79
2018-05-04T03:21:56.141Z,62.86
2018-05-04T03:23:02.698Z,62.85
2018-05-04T03:24:09.520Z,62.77
2018-05-04T03:25:16.254Z,62.84
2018-05-04T03:26:23.145Z,62.86
2018-05-04T03:27:29.880Z,62.87
2018-05-04T03:28:36.698Z,62.91
2018-05-04T03:29:43.424Z,62.91
2018-05-04T03:30:50.131Z,63.05
2018-05-04T03:31:57.105Z,62.99
2018-05-04T03:33:03.845Z,62.95
2018-05-04T03:34:10.585Z,62.97
2018-05-04T03:35:17.298Z,62.95
2018-05-04T03:36:24.006Z,63.02
2018-05-04T03:37:30.718Z,62.98
2018-05-04T03:38:37.474Z,62.94
2018-05-04T03:39:44.207Z,63.04
2018-05-04T03:40:50.904Z,63.04
2018-05-04T03:41:57.598Z,62.97
2018-05-04T03:43:04.547Z,62.98
2018-05-04T03:44:11.318Z,63.05
2018-05-04T03:45:18.035Z,63.06
2018-05-04T03:46:24.807Z,63.17
2018-05-04T03:47:31.538Z,63.11
2018-05-04T03:48:38.262Z,63.20
2018-05-04T03:49:44.983Z,63.15
2018-05-04T03:50:51.676Z,63.13
2018-05-04T03:51:58.457Z,63.08
2018-05-04T03:53:05.091Z,63.10
2018-05-04T03:54:11.864Z,63.17
2018-05-04T03:55:18.590Z,63.11
2018-05-04T03:56:25.293Z,63.17
2018-05-04T03:57:32.010Z,63.21
2018-05-04T03:58:38.760Z,63.15
2018-05-04T03:59:45.530Z,63.16
2018-05-04T04:01:56.429Z,63.22
2018-05-04T04:04:07.302Z,63.19
2018-05-04T04:05:14.447Z,63.31
2018-05-04T04:06:21.187Z,63.35
2018-05-04T04:07:27.902Z,63.39
2018-05-04T04:08:34.583Z,63.37
2018-05-04T04:09:41.306Z,63.33
2018-05-04T04:10:48.042Z,63.38
2018-05-04T04:11:54.775Z,63.40
2018-05-04T04:13:01.525Z,63.41
2018-05-04T04:14:08.247Z,63.41
2018-05-04T04:15:20.063Z,63.40
2018-05-04T04:16:21.764Z,63.44
2018-05-04T04:17:28.493Z,63.42
2018-05-04T04:18:35.202Z,63.47
2018-05-04T04:19:41.998Z,63.52
2018-05-04T04:20:48.697Z,63.47
2018-05-04T04:21:55.379Z,63.51
2018-05-04T04:23:02.092Z,63.47
2018-05-04T04:24:08.814Z,63.42
2018-05-04T04:25:15.530Z,63.43
2018-05-04T04:26:22.242Z,63.49
2018-05-04T04:27:28.950Z,63.51
2018-05-04T04:28:35.643Z,63.59
2018-05-04T04:29:42.376Z,63.64
2018-05-04T04:30:49.191Z,63.63
2018-05-04T04:31:55.882Z,63.71
2018-05-04T04:33:02.587Z,63.76
2018-05-04T04:34:09.329Z,63.69
2018-05-04T04:35:16.027Z,63.76
2018-05-04T04:36:22.774Z,63.73
2018-05-04T04:37:29.556Z,63.70
2018-05-04T04:38:36.385Z,63.85
2018-05-04T04:39:43.073Z,63.90
2018-05-04T04:40:49.799Z,63.95
2018-05-04T04:41:56.552Z,63.95
2018-05-04T04:43:03.266Z,63.98
2018-05-04T04:44:09.987Z,63.98
2018-05-04T04:45:16.686Z,64.06
2018-05-04T04:46:23.387Z,64.17
2018-05-04T04:47:30.110Z,64.22
2018-05-04T04:48:36.819Z,64.29
2018-05-04T04:49:43.561Z,64.37
2018-05-04T04:50:50.289Z,64.43
2018-05-04T04:51:57.021Z,64.49
2018-05-04T04:53:03.738Z,64.52
2018-05-04T04:54:10.463Z,64.63
2018-05-04T04:55:17.214Z,64.59
2018-05-04T04:56:23.974Z,64.58
2018-05-04T04:57:30.695Z,64.60
2018-05-04T04:58:37.382Z,64.66
2018-05-04T04:59:44.122Z,64.76
2018-05-04T05:00:50.871Z,64.85
2018-05-04T05:01:57.611Z,64.93
2018-05-04T05:03:04.424Z,64.97
2018-05-04T05:04:11.199Z,65.02
2018-05-04T05:05:17.954Z,65.10
2018-05-04T05:06:24.662Z,65.11
2018-05-04T05:07:31.338Z,65.15
2018-05-04T05:08:38.053Z,65.19
2018-05-04T05:09:44.803Z,65.31
2018-05-04T05:10:51.526Z,65.42
2018-05-04T05:11:58.226Z,65.42
2018-05-04T05:13:04.911Z,65.47
2018-05-04T05:14:12.331Z,65.56
2018-05-04T05:15:18.414Z,65.60
2018-05-04T05:16:25.102Z,65.67
2018-05-04T05:17:31.789Z,65.78
2018-05-04T05:18:38.495Z,65.85
2018-05-04T05:19:45.244Z,65.88
2018-05-04T05:20:51.930Z,65.98
2018-05-04T05:21:58.646Z,66.04
2018-05-04T05:23:05.342Z,66.19
2018-05-04T05:24:12.047Z,66.28
2018-05-04T05:25:18.778Z,66.33
2018-05-04T05:26:25.463Z,66.41
2018-05-04T05:27:32.192Z,66.52
2018-05-04T05:28:38.927Z,66.58
2018-05-04T05:29:45.666Z,66.66
2018-05-04T05:30:52.356Z,66.82
2018-05-04T05:31:59.063Z,67.03
2018-05-04T05:33:05.749Z,67.21
2018-05-04T05:34:12.452Z,67.27
2018-05-04T05:35:19.190Z,67.37
2018-05-04T05:36:25.879Z,67.46
2018-05-04T05:37:32.586Z,67.56
2018-05-04T05:38:39.266Z,67.77
2018-05-04T05:39:45.969Z,67.93
2018-05-04T05:40:52.675Z,67.99
2018-05-04T05:41:59.409Z,68.03
2018-05-04T05:43:06.137Z,68.14
2018-05-04T05:44:12.819Z,68.26
2018-05-04T05:45:19.567Z,68.36
2018-05-04T05:46:26.258Z,68.46
2018-05-04T05:47:32.942Z,68.63
2018-05-04T05:48:39.622Z,68.75
2018-05-04T05:49:46.331Z,68.91
2018-05-04T05:50:53.034Z,69.12
2018-05-04T05:51:59.808Z,69.27
2018-05-04T05:53:06.534Z,69.45
2018-05-04T05:54:13.234Z,69.61
2018-05-04T05:55:19.956Z,69.66
2018-05-04T05:56:26.637Z,69.83
2018-05-04T05:57:33.345Z,70.05
2018-05-04T05:58:40.063Z,70.16
2018-05-04T05:59:46.781Z,70.20
2018-05-04T06:00:53.503Z,70.18
2018-05-04T06:02:00.242Z,70.23
2018-05-04T06:03:06.983Z,70.36
2018-05-04T06:04:13.783Z,70.34
2018-05-04T06:05:20.519Z,70.39
2018-05-04T06:06:27.271Z,70.44
2018-05-04T06:07:33.971Z,70.62
2018-05-04T06:08:40.765Z,70.72
2018-05-04T06:09:47.546Z,70.89
2018-05-04T06:10:54.274Z,71.04
2018-05-04T06:12:01.014Z,71.11
2018-05-04T06:13:07.763Z,71.11
2018-05-04T06:14:14.514Z,71.17
2018-05-04T06:15:21.263Z,71.31
2018-05-04T06:16:27.995Z,71.46
2018-05-04T06:17:34.717Z,71.54
2018-05-04T06:18:41.485Z,71.56
2018-05-04T06:19:48.230Z,71.60
2018-05-04T06:20:54.971Z,71.71
2018-05-04T06:22:01.712Z,71.89
2018-05-04T06:23:08.473Z,71.94
2018-05-04T06:24:15.205Z,72.01
2018-05-04T06:25:21.926Z,72.09
2018-05-04T06:26:28.665Z,72.23
2018-05-04T06:27:35.362Z,72.43
2018-05-04T06:28:42.471Z,72.67
2018-05-04T06:29:49.262Z,72.67
2018-05-04T06:30:55.962Z,72.88
2018-05-04T06:32:03.029Z,73.11
2018-05-04T06:33:09.726Z,73.25
2018-05-04T06:34:16.434Z,73.47
2018-05-04T06:35:23.211Z,73.82
2018-05-04T06:36:29.978Z,73.73
2018-05-04T06:37:36.757Z,73.55
2018-05-04T06:38:43.565Z,73.69
2018-05-04T06:39:50.383Z,73.92
2018-05-04T06:40:57.628Z,73.53
2018-05-04T06:42:03.890Z,73.50
2018-05-04T06:43:10.665Z,73.45
2018-05-04T06:44:17.547Z,73.33
2018-05-04T06:45:24.275Z,73.28
2018-05-04T06:46:31.063Z,73.40
2018-05-04T06:47:37.802Z,73.47
2018-05-04T06:48:45.018Z,73.36
2018-05-04T06:49:51.430Z,73.22
2018-05-04T06:50:58.302Z,73.14
2018-05-04T06:52:05.016Z,72.97
2018-05-04T06:53:11.884Z,72.87
2018-05-04T06:54:18.642Z,72.77
2018-05-04T06:55:25.463Z,72.61
2018-05-04T06:56:32.307Z,72.48
2018-05-04T06:57:39.006Z,72.59
2018-05-04T06:58:45.731Z,72.45
2018-05-04T06:59:52.439Z,72.45
2018-05-04T07:00:59.584Z,72.20
2018-05-04T07:02:06.411Z,72.13
2018-05-04T07:03:13.175Z,72.28
2018-05-04T07:04:19.942Z,72.13
2018-05-04T07:05:26.671Z,72.22
2018-05-04T07:06:33.389Z,72.17
2018-05-04T07:07:40.107Z,71.89
2018-05-04T07:08:46.867Z,71.87
2018-05-04T07:09:53.637Z,71.67
2018-05-04T07:11:00.387Z,71.50
2018-05-04T07:12:07.152Z,71.45
2018-05-04T07:13:13.854Z,71.40
2018-05-04T07:14:20.579Z,71.25
2018-05-04T07:15:27.322Z,71.19
2018-05-04T07:16:34.059Z,71.06
2018-05-04T07:17:40.935Z,70.94
2018-05-04T07:18:47.771Z,71.05
2018-05-04T07:19:54.544Z,70.92
2018-05-04T07:21:01.360Z,70.70
2018-05-04T07:22:08.361Z,70.70
2018-05-04T07:23:15.096Z,70.47
2018-05-04T07:24:22.887Z,70.57
2018-05-04T07:25:28.643Z,70.49
2018-05-04T07:26:35.356Z,70.38
2018-05-04T07:27:42.254Z,70.27
2018-05-04T07:28:49.189Z,70.31
2018-05-04T07:29:55.843Z,70.20
2018-05-04T07:31:02.703Z,70.01
2018-05-04T07:32:09.567Z,69.72
2018-05-04T07:33:16.359Z,69.65
2018-05-04T07:34:23.162Z,69.84
2018-05-04T07:35:30.127Z,69.55
2018-05-04T07:36:37.055Z,69.49
2018-05-04T07:37:43.746Z,69.48
2018-05-04T07:38:50.783Z,69.30
2018-05-04T07:39:57.674Z,69.34
2018-05-04T07:41:04.479Z,69.19
2018-05-04T07:42:11.266Z,69.19
2018-05-04T07:43:18.021Z,69.04
2018-05-04T07:44:24.801Z,68.95
2018-05-04T07:45:31.974Z,68.90
2018-05-04T07:46:38.345Z,68.90
2018-05-04T07:47:45.135Z,68.62
2018-05-04T07:48:51.886Z,68.48
2018-05-04T07:49:58.654Z,68.48
2018-05-04T07:51:05.386Z,68.61
2018-05-04T07:52:12.162Z,68.54
2018-05-04T07:53:18.991Z,68.28
2018-05-04T07:54:25.704Z,68.19
2018-05-04T07:55:32.453Z,68.25
2018-05-04T07:56:39.217Z,68.14
2018-05-04T07:57:45.963Z,67.93
2018-05-04T07:58:52.701Z,68.10
2018-05-04T07:59:59.453Z,68.10
2018-05-04T08:01:06.274Z,67.92
2018-05-04T08:02:13.053Z,67.81
2018-05-04T08:03:19.841Z,67.81
2018-05-04T08:04:26.650Z,67.59
2018-05-04T08:05:33.698Z,67.58
2018-05-04T08:06:40.626Z,67.35
2018-05-04T08:07:47.464Z,67.34
2018-05-04T08:08:54.144Z,67.33
2018-05-04T08:10:03.100Z,67.25
2018-05-04T08:11:08.028Z,66.93
2018-05-04T08:12:14.864Z,66.76
2018-05-04T08:13:22.067Z,66.58
2018-05-04T08:14:29.150Z,66.50
2018-05-04T08:15:35.939Z,66.27
2018-05-04T08:16:42.646Z,66.22
2018-05-04T08:17:49.689Z,66.24
2018-05-04T08:18:56.474Z,66.15
2018-05-04T08:20:03.209Z,66.24
2018-05-04T08:21:09.992Z,66.12
2018-05-04T08:22:16.735Z,66.15
2018-05-04T08:23:23.467Z,65.90
2018-05-04T08:24:30.186Z,65.79
2018-05-04T08:25:36.987Z,65.54
2018-05-04T08:26:43.758Z,65.31
2018-05-04T08:27:50.521Z,65.04
2018-05-04T08:28:57.254Z,65.04
2018-05-04T08:30:04.003Z,64.95
2018-05-04T08:31:10.803Z,64.96
2018-05-04T08:32:17.506Z,65.03
2018-05-04T08:33:24.282Z,64.93
2018-05-04T08:34:31.030Z,64.54
2018-05-04T08:35:37.816Z,64.47
2018-05-04T08:36:44.558Z,64.41
2018-05-04T08:37:57.902Z,64.09
2018-05-04T08:38:58.182Z,63.91
2018-05-04T08:40:04.938Z,63.85
2018-05-04T08:41:11.730Z,63.85
2018-05-04T08:42:18.539Z,63.69
2018-05-04T08:43:25.301Z,63.52
2018-05-04T08:44:35.943Z,63.38
2018-05-04T08:45:38.718Z,63.35
2018-05-04T08:46:45.455Z,63.05
2018-05-04T08:47:52.310Z,63.08
2018-05-04T08:48:59.354Z,62.80
2018-05-04T08:50:05.990Z,62.73
2018-05-04T08:51:13.541Z,62.48
2018-05-04T08:52:19.780Z,62.30
2018-05-04T08:53:26.528Z,62.14
2018-05-04T08:54:33.319Z,62.04
2018-05-04T08:55:40.055Z,62.04
2018-05-04T08:56:46.741Z,61.90
2018-05-04T08:57:53.446Z,61.51
2018-05-04T08:59:00.251Z,61.32
2018-05-04T09:00:07.006Z,61.15
2018-05-04T09:01:13.789Z,60.94
2018-05-04T09:02:20.771Z,60.82
2018-05-04T09:03:27.454Z,60.68
2018-05-04T09:04:34.183Z,60.50
2018-05-04T09:05:41.032Z,60.39
2018-05-04T09:06:47.705Z,60.32
2018-05-04T09:07:54.406Z,60.30
2018-05-04T09:09:01.394Z,60.11
2018-05-04T09:10:08.227Z,60.13
2018-05-04T09:11:15.017Z,60.33
2018-05-04T09:12:21.863Z,59.94
2018-05-04T09:13:28.622Z,59.84
2018-05-04T09:14:35.334Z,59.75
2018-05-04T09:15:42.096Z,60.01
2018-05-04T09:16:48.831Z,60.02
2018-05-04T09:17:55.871Z,59.80
2018-05-04T09:19:02.674Z,59.60
2018-05-04T09:20:09.434Z,59.57
2018-05-04T09:21:16.154Z,59.45
2018-05-04T09:22:22.859Z,59.52
2018-05-04T09:23:29.562Z,59.32
2018-05-04T09:24:36.323Z,59.30
2018-05-04T09:25:43.082Z,59.18
2018-05-04T09:26:49.780Z,59.14
2018-05-04T09:27:56.475Z,58.83
2018-05-04T09:29:03.203Z,58.74
2018-05-04T09:30:09.922Z,58.64
2018-05-04T09:31:16.731Z,58.70
2018-05-04T09:32:23.539Z,58.35
2018-05-04T09:33:30.282Z,58.04
2018-05-04T09:34:36.978Z,57.97
2018-05-04T09:35:43.726Z,57.85
2018-05-04T09:36:50.454Z,57.79
2018-05-04T09:37:57.131Z,57.59
2018-05-04T09:39:03.897Z,57.84
2018-05-04T09:40:10.647Z,57.72
2018-05-04T09:41:17.434Z,57.60
2018-05-04T09:42:24.295Z,57.65
2018-05-04T09:43:31.114Z,57.34
2018-05-04T09:44:37.788Z,57.37
2018-05-04T09:45:44.567Z,57.24
2018-05-04T09:46:51.279Z,57.02
2018-05-04T09:47:58.212Z,57.17
2018-05-04T09:49:05.103Z,57.01
2018-05-04T09:50:11.841Z,57.05
2018-05-04T09:51:18.630Z,56.88
2018-05-04T09:52:25.433Z,57.54
2018-05-04T09:53:36.112Z,57.02
2018-05-04T09:54:39.323Z,56.93
2018-05-04T09:55:46.098Z,56.78
2018-05-04T09:56:53.052Z,56.74
2018-05-04T09:57:59.821Z,56.73
2018-05-04T09:59:06.502Z,56.48
2018-05-04T10:00:17.188Z,56.29
2018-05-04T10:01:20.011Z,56.30
2018-05-04T10:02:26.755Z,56.51
2018-05-04T10:03:33.716Z,56.38
2018-05-04T10:04:40.458Z,56.43
2018-05-04T10:05:47.263Z,56.37
2018-05-04T10:06:54.050Z,56.31
2018-05-04T10:08:00.811Z,55.94
2018-05-04T10:09:07.583Z,55.88
2018-05-04T10:10:14.246Z,55.68
2018-05-04T10:11:21.022Z,55.71
2018-05-04T10:12:28.757Z,55.62
2018-05-04T10:13:34.478Z,55.30
2018-05-04T10:14:41.261Z,55.27
2018-05-04T10:15:49.050Z,55.50
2018-05-04T10:16:54.968Z,55.26
2018-05-04T10:18:01.883Z,55.36
2018-05-04T10:19:10.639Z,55.20
2018-05-04T10:20:15.797Z,55.14
2018-05-04T10:21:22.531Z,55.02
2018-05-04T10:22:29.261Z,54.78
2018-05-04T10:23:36.131Z,54.51
2018-05-04T10:24:43.358Z,54.48
2018-05-04T10:25:50.045Z,54.16
2018-05-04T10:26:56.422Z,54.23
2018-05-04T10:28:03.255Z,54.37
2018-05-04T10:29:10.047Z,54.30
2018-05-04T10:30:16.812Z,54.40
2018-05-04T10:31:29.881Z,54.21
2018-05-04T10:32:30.593Z,53.81
2018-05-04T10:33:37.305Z,53.99
2018-05-04T10:34:44.174Z,54.03
2018-05-04T10:35:51.400Z,53.64
2018-05-04T10:36:59.068Z,53.70
2018-05-04T10:38:04.990Z,53.50
2018-05-04T10:39:11.988Z,53.36
2018-05-04T10:40:18.755Z,53.45
2018-05-04T10:41:25.590Z,53.97
2018-05-04T10:42:32.967Z,53.92
2018-05-04T10:43:39.190Z,53.81
2018-05-04T10:44:45.910Z,53.59
2018-05-04T10:45:52.697Z,53.06
2018-05-04T10:46:59.436Z,53.01
2018-05-04T10:48:06.326Z,53.10
2018-05-04T10:49:13.064Z,52.65
2018-05-04T10:50:19.846Z,52.71
2018-05-04T10:51:26.598Z,52.80
2018-05-04T10:53:22.606Z,52.87
2018-05-04T10:54:29.707Z,52.80
2018-05-04T10:55:36.415Z,52.46
2018-05-04T10:56:43.297Z,52.22
2018-05-04T10:57:49.990Z,52.18
2018-05-04T10:58:56.906Z,52.30
2018-05-04T11:00:03.605Z,52.21
2018-05-04T11:01:10.373Z,51.96
2018-05-04T11:02:17.132Z,51.97
2018-05-04T11:03:23.862Z,51.93
2018-05-04T11:04:30.636Z,52.29
2018-05-04T11:05:37.594Z,52.17
2018-05-04T11:06:44.322Z,51.86
2018-05-04T11:07:51.073Z,51.94
2018-05-04T11:08:57.947Z,51.75
2018-05-04T11:10:05.030Z,51.62
2018-05-04T11:11:13.990Z,52.42
2018-05-04T11:16:18.306Z,52.44
2018-05-04T11:18:32.026Z,51.78
2018-05-04T11:19:40.635Z,51.94
2018-05-04T11:20:45.500Z,52.05
2018-05-04T11:21:52.327Z,52.22
2018-05-04T11:22:59.155Z,51.90
2018-05-04T11:24:06.114Z,51.78
2018-05-04T11:25:13.015Z,51.64
2018-05-04T11:26:19.766Z,51.55
2018-05-04T11:27:26.550Z,51.26
2018-05-04T11:28:34.407Z,51.30
2018-05-04T11:29:40.213Z,50.87
2018-05-04T11:30:47.058Z,50.57
2018-05-04T11:31:53.846Z,50.60
2018-05-04T11:33:01.018Z,50.41
2018-05-04T11:34:07.333Z,50.11
2018-05-04T11:35:15.972Z,49.94
2018-05-04T11:36:20.827Z,50.34
2018-05-04T11:37:27.606Z,50.43
2018-05-04T11:38:43.360Z,50.42
2018-05-04T11:39:42.352Z,50.39
2018-05-04T11:40:48.339Z,50.13
2018-05-04T11:41:55.172Z,50.27
2018-05-04T11:43:01.926Z,50.39
2018-05-04T11:44:08.667Z,50.27
2018-05-04T11:45:23.004Z,49.88
2018-05-04T11:46:22.439Z,49.75
2018-05-04T11:47:29.148Z,49.84
2018-05-04T11:48:35.883Z,49.82
2018-05-04T11:49:44.531Z,49.54
2018-05-04T11:50:49.939Z,49.84
2018-05-04T11:51:56.679Z,50.06
2018-05-04T11:53:03.378Z,50.02
2018-05-04T11:54:10.466Z,49.62
2018-05-04T11:55:17.360Z,49.50
2018-05-04T11:56:24.107Z,49.37
2018-05-04T11:57:30.895Z,49.25
2018-05-04T11:58:37.646Z,49.33
2018-05-04T11:59:44.549Z,49.26
2018-05-04T12:00:51.314Z,49.12
2018-05-04T12:01:58.065Z,48.81
2018-05-04T12:03:04.987Z,48.70
2018-05-04T12:04:11.831Z,48.50
2018-05-04T12:05:18.679Z,48.46
2018-05-04T12:06:25.479Z,48.37
2018-05-04T12:07:32.267Z,48.64
2018-05-04T12:08:44.463Z,48.46
2018-05-04T12:09:46.165Z,48.42
2018-05-04T12:10:53.037Z,48.32
2018-05-04T12:11:59.724Z,49.00
2018-05-04T12:13:06.505Z,49.14
2018-05-04T12:14:13.272Z,48.57
2018-05-04T12:15:20.037Z,48.48
2018-05-04T12:16:27.603Z,48.19
2018-05-04T12:17:33.672Z,48.13
2018-05-04T12:18:40.403Z,48.06
2018-05-04T12:19:47.202Z,48.19
2018-05-04T12:20:54.167Z,48.21
2018-05-04T12:22:00.901Z,47.87
2018-05-04T12:23:07.634Z,47.90
2018-05-04T12:24:14.358Z,47.87
2018-05-04T12:25:21.079Z,47.97
2018-05-04T12:26:27.802Z,48.36
2018-05-04T12:27:34.515Z,49.12
2018-05-04T12:28:41.219Z,49.23
2018-05-04T12:29:47.911Z,48.84
2018-05-04T12:30:54.650Z,48.72
2018-05-04T12:32:01.354Z,48.49
2018-05-04T12:33:08.076Z,48.09
2018-05-04T12:34:14.790Z,47.96
2018-05-04T12:35:21.496Z,48.23
2018-05-04T12:36:28.208Z,47.86
2018-05-04T12:37:35.051Z,47.49
2018-05-04T12:38:41.627Z,47.39
2018-05-04T12:39:48.537Z,47.37
2018-05-04T12:40:55.566Z,47.37
2018-05-04T12:42:02.474Z,47.00
2018-05-04T12:43:09.319Z,46.87
2018-05-04T12:44:16.198Z,46.83
2018-05-04T12:45:23.819Z,46.81
2018-05-04T12:46:30.097Z,46.65
2018-05-04T12:47:38.963Z,46.64
2018-05-04T12:48:43.758Z,46.42
2018-05-04T12:49:50.483Z,46.35
2018-05-04T12:50:57.227Z,46.34
2018-05-04T12:52:03.948Z,46.63
2018-05-04T12:53:10.659Z,46.19
2018-05-04T12:54:17.404Z,45.95
2018-05-04T12:55:24.171Z,45.75
2018-05-04T12:56:31.250Z,45.63
2018-05-04T12:57:38.128Z,45.38
2018-05-04T12:58:44.951Z,45.89
2018-05-04T12:59:51.730Z,45.93
2018-05-04T13:00:58.527Z,45.76
2018-05-04T13:02:05.290Z,45.58
2018-05-04T13:03:12.019Z,45.57
2018-05-04T13:04:18.830Z,45.35
2018-05-04T13:05:25.483Z,45.11
2018-05-04T13:06:32.250Z,44.78
2018-05-04T13:07:39.023Z,44.44
2018-05-04T13:08:46.863Z,44.45
2018-05-04T13:09:52.647Z,44.38
2018-05-04T13:11:02.836Z,44.01
2018-05-04T13:12:16.219Z,44.09
2018-05-04T13:13:13.442Z,43.80
2018-05-04T13:14:20.367Z,43.78
2018-05-04T13:15:27.154Z,43.71
2018-05-04T13:16:34.061Z,43.57
2018-05-04T13:17:42.369Z,43.83
2018-05-04T13:18:48.477Z,44.40
2018-05-04T13:21:01.946Z,44.17
2018-05-04T13:22:10.005Z,44.24
2018-05-04T13:23:15.935Z,44.16
2018-05-04T13:24:22.627Z,44.29
2018-05-04T13:25:29.446Z,44.06
2018-05-04T13:26:36.521Z,44.19
2018-05-04T13:28:50.063Z,44.25
2018-05-04T13:29:56.831Z,44.06
2018-05-04T13:31:05.835Z,43.83
2018-05-04T13:32:10.363Z,43.70
2018-05-04T13:33:17.293Z,43.59
2018-05-04T13:34:24.223Z,43.67
2018-05-04T13:35:31.014Z,43.67
2018-05-04T13:36:37.815Z,43.68
2018-05-04T13:37:44.494Z,43.45
2018-05-04T13:38:51.478Z,43.52
2018-05-04T13:39:58.293Z,43.48
2018-05-04T13:41:05.022Z,43.50
2018-05-04T13:42:11.828Z,43.44
2018-05-04T13:43:18.670Z,43.25
2018-05-04T13:44:25.594Z,43.14
2018-05-04T13:45:32.338Z,43.34
2018-05-04T13:46:39.079Z,43.34
2018-05-04T13:47:45.806Z,43.32
2018-05-04T13:48:52.642Z,43.35
2018-05-04T13:49:59.518Z,43.39
2018-05-04T13:51:06.325Z,43.18
2018-05-04T13:52:13.114Z,43.43
2018-05-04T13:53:19.894Z,43.55
2018-05-04T13:54:26.583Z,43.44
2018-05-04T13:55:33.374Z,43.41
2018-05-04T13:56:40.198Z,43.87
2018-05-04T13:57:46.926Z,43.92
2018-05-04T13:58:53.655Z,43.56
2018-05-04T14:00:00.426Z,43.42
2018-05-04T14:01:07.204Z,43.29
2018-05-04T14:02:13.914Z,43.26
2018-05-04T14:03:20.698Z,43.35
2018-05-04T14:04:27.547Z,43.66
2018-05-04T14:05:34.323Z,44.14
2018-05-04T14:06:41.939Z,44.64
2018-05-04T14:07:48.212Z,44.72
2018-05-04T14:08:55.200Z,44.10
2018-05-04T14:10:01.923Z,43.82
2018-05-04T14:11:08.712Z,43.55
2018-05-04T14:12:15.578Z,43.29
2018-05-04T14:13:24.324Z,43.23
2018-05-04T14:14:29.079Z,43.16
2018-05-04T14:15:35.875Z,43.33
2018-05-04T14:16:42.643Z,43.41
2018-05-04T14:17:49.791Z,43.59
2018-05-04T14:18:56.566Z,43.57
2018-05-04T14:20:03.788Z,43.44
2018-05-04T14:21:10.050Z,43.48
2018-05-04T14:22:16.826Z,43.47
2018-05-04T14:23:23.579Z,43.76
2018-05-04T14:24:30.298Z,43.46
2018-05-04T14:25:41.358Z,43.50
2018-05-04T14:26:44.143Z,43.70
2018-05-04T14:27:50.937Z,43.87
2018-05-04T14:28:59.490Z,43.73
2018-05-04T14:30:05.767Z,43.71